Holgate, Ohio
Current Conditions -  °F | °C
As of 11:53 PM on Friday 28 Nov 2014 (Local Time) from KDFI Reporting Station
Overcast Overcast  
Wind Chill: -4°   Ceiling: 10000
Heat Index:   Visibility: 10mi
Dew Point: -6°   Wind: 9mph
Humidity: 64%   Direction: 190°S
Pressure: 30.05"   Gusts: NA
Location:  41.25°N, 84.13°W
Report Text: KDFI 290453Z AUTO 19008KT 10SM FEW075 OVC100 00/M06 A3005 RMK AO2 SLP185 T00001061 400001067
Loading
Personal Weather Stations






























Interactive Weather Map New forecast layout! Learn more

10-Day Weather Forecast

Advertisements
Track Severe Weather on mobile